Time;durP1;ratioP1;P1;durP2;ratioP2;P2;SDS_P1;SDS_P2;PMS_P1;PMS_P2;Temp;Humidity;BMP_temperature;BMP_pressure;BME280_temperature;BME280_humidity;BME280_pressure;Samples;Min_cycle;Max_cycle;Signal;HPM_P1;HPM_P2
2024/02/22 00:02:19;;;;;;;3.07;2.00;;;;;;;2.89;79.40;100177.00;5054246;28;20450;-75
2024/02/22 00:04:46;;;;;;;3.83;2.40;;;;;;;2.90;79.52;100183.03;5054210;28;20452;-75
2024/02/22 00:07:15;;;;;;;3.37;2.30;;;;;;;2.89;79.43;100170.97;5054138;28;20444;-74
2024/02/22 00:09:42;;;;;;;3.80;2.20;;;;;;;2.88;79.43;100169.28;5054038;28;20481;-75
2024/02/22 00:12:11;;;;;;;4.00;2.27;;;;;;;2.90;79.41;100172.69;5053941;28;20440;-74
2024/02/22 00:14:40;;;;;;;3.27;2.20;;;;;;;2.89;79.50;100168.41;5053878;28;20941;-74
2024/02/22 00:17:07;;;;;;;2.57;2.00;;;;;;;2.89;79.25;100160.66;5053364;28;20447;-75
2024/02/22 00:19:34;;;;;;;2.33;2.00;;;;;;;2.90;79.54;100157.19;5053855;28;20529;-74
2024/02/22 00:22:01;;;;;;;2.87;1.90;;;;;;;2.87;79.57;100154.63;5053931;28;20439;-74
2024/02/22 00:24:28;;;;;;;2.83;1.87;;;;;;;2.89;79.46;100156.34;5053998;28;20813;-75
2024/02/22 00:26:55;;;;;;;2.57;1.70;;;;;;;2.90;79.59;100154.59;5053743;28;20831;-75
2024/02/22 00:29:23;;;;;;;2.93;1.80;;;;;;;2.90;79.44;100162.34;5053513;28;20981;-74
2024/02/22 00:31:50;;;;;;;1.87;1.60;;;;;;;2.89;79.63;100152.91;5053798;28;20507;-75
2024/02/22 00:34:17;;;;;;;2.70;1.80;;;;;;;2.89;79.48;100160.66;5053672;28;20424;-75
2024/02/22 00:36:44;;;;;;;2.10;1.57;;;;;;;2.89;79.48;100155.47;5053540;28;20834;-75
2024/02/22 00:39:11;;;;;;;1.80;1.57;;;;;;;2.88;79.41;100153.78;5053793;28;20949;-74
2024/02/22 00:41:38;;;;;;;1.97;1.53;;;;;;;2.88;79.46;100153.78;5053242;28;20437;-75
2024/02/22 00:44:07;;;;;;;1.70;1.50;;;;;;;2.88;79.43;100148.59;5053576;28;20445;-75
2024/02/22 00:46:36;;;;;;;1.90;1.40;;;;;;;2.88;79.29;100148.59;5053558;28;20436;-75
2024/02/22 00:49:02;;;;;;;2.00;1.60;;;;;;;2.88;79.32;100148.59;5053270;28;20848;-75
2024/02/22 00:51:29;;;;;;;2.37;1.90;;;;;;;2.87;79.19;100147.75;5053306;28;20816;-75
2024/02/22 00:53:56;;;;;;;1.87;1.63;;;;;;;2.86;79.14;100151.19;5053248;28;20440;-75
2024/02/22 00:56:23;;;;;;;2.47;1.73;;;;;;;2.88;79.74;100153.78;5053066;28;20472;-75
2024/02/22 00:58:50;;;;;;;2.10;1.73;;;;;;;2.87;79.32;100154.63;5053163;28;20457;-71
2024/02/22 01:01:17;;;;;;;2.37;1.70;;;;;;;2.86;79.38;100147.75;5053151;28;20444;-72
2024/02/22 01:03:45;;;;;;;2.37;1.87;;;;;;;2.86;79.26;100150.31;5053082;28;20435;-70
2024/02/22 01:06:13;;;;;;;2.10;1.80;;;;;;;2.85;79.58;100154.63;5052823;28;20441;-71
2024/02/22 01:08:40;;;;;;;1.67;1.53;;;;;;;2.86;79.17;100150.31;5053071;28;20485;-71
2024/02/22 01:11:07;;;;;;;1.70;1.50;;;;;;;2.83;79.23;100144.28;5053088;28;20817;-71
2024/02/22 01:13:34;;;;;;;1.53;1.20;;;;;;;2.83;79.22;100144.28;5053018;28;20813;-71
2024/02/22 01:16:01;;;;;;;1.63;1.17;;;;;;;2.82;79.34;100144.31;5052752;28;20442;-71
2024/02/22 01:18:28;;;;;;;2.27;1.20;;;;;;;2.81;79.46;100137.41;5053060;28;20968;-71
2024/02/22 01:20:56;;;;;;;0.90;0.90;;;;;;;2.80;79.31;100131.38;5052787;28;20440;-71
2024/02/22 01:23:24;;;;;;;0.80;0.80;;;;;;;2.80;79.23;100127.94;5052645;28;20536;-71
2024/02/22 01:25:51;;;;;;;1.00;0.90;;;;;;;2.80;79.32;100131.38;5052648;28;20498;-70
2024/02/22 01:28:18;;;;;;;1.00;1.00;;;;;;;2.81;79.30;100129.66;5052366;28;20437;-71
2024/02/22 01:30:45;;;;;;;0.93;0.93;;;;;;;2.80;79.25;100130.53;5052337;28;20444;-81
2024/02/22 01:33:12;;;;;;;1.13;1.00;;;;;;;2.81;79.12;100127.06;5052956;28;20806;-81
2024/02/22 01:35:39;;;;;;;0.70;0.70;;;;;;;2.79;79.36;100129.66;5053190;28;20498;-81
2024/02/22 01:38:07;;;;;;;1.23;1.03;;;;;;;2.79;79.32;100129.66;5053223;28;20548;-81
2024/02/22 01:40:34;;;;;;;1.33;1.10;;;;;;;2.79;79.31;100121.91;5052852;28;20447;-81
2024/02/22 01:43:01;;;;;;;0.90;0.90;;;;;;;2.77;79.39;100120.19;5052767;28;20452;-81
2024/02/22 01:45:28;;;;;;;0.70;0.70;;;;;;;2.78;79.44;100116.75;5052792;28;20433;-80
2024/02/22 01:47:55;;;;;;;0.90;0.60;;;;;;;2.79;79.23;100109.00;5052915;28;20441;-81
2024/02/22 01:50:23;;;;;;;0.70;0.60;;;;;;;2.77;79.30;100105.56;5052736;28;20512;-80
2024/02/22 01:52:51;;;;;;;0.63;0.63;;;;;;;2.79;79.27;100102.97;5052891;28;20942;-81
2024/02/22 01:55:20;;;;;;;0.60;0.60;;;;;;;2.79;79.27;100100.41;5052418;28;20469;-81
2024/02/22 01:57:49;;;;;;;0.77;0.70;;;;;;;2.77;79.21;100095.22;5052924;28;20437;-81
2024/02/22 02:00:17;;;;;;;0.90;0.90;;;;;;;2.78;79.35;100090.91;5052733;28;20447;-81
2024/02/22 02:02:44;;;;;;;0.70;0.60;;;;;;;2.78;79.40;100107.25;5052762;28;20443;-81
2024/02/22 02:05:11;;;;;;;0.70;0.60;;;;;;;2.79;79.22;100105.56;5052568;28;20448;-80
2024/02/22 02:07:39;;;;;;;1.00;0.80;;;;;;;2.78;79.36;100106.41;5052745;28;20944;-81
2024/02/22 02:10:08;;;;;;;0.67;0.67;;;;;;;2.78;79.12;100096.06;5052706;28;20507;-80
2024/02/22 02:12:37;;;;;;;0.70;0.70;;;;;;;2.76;79.22;100098.66;5052752;28;20886;-81
2024/02/22 02:15:04;;;;;;;0.70;0.70;;;;;;;2.77;79.27;100095.22;5052642;28;20520;-80
2024/02/22 02:17:31;;;;;;;0.80;0.70;;;;;;;2.75;79.25;100084.00;5052397;28;20930;-80
2024/02/22 02:19:59;;;;;;;0.70;0.70;;;;;;;2.77;79.28;100084.03;5052584;28;20441;-80
2024/02/22 02:22:43;;;;;;;0.47;0.47;;;;;;;2.77;79.22;100087.47;5052320;28;20440;-81
2024/02/22 02:25:12;;;;;;;0.80;0.70;;;;;;;2.77;79.05;100082.31;5052783;28;20857;-80
2024/02/22 02:27:39;;;;;;;0.70;0.70;;;;;;;2.77;79.22;100082.31;5052532;28;20438;-80
2024/02/22 02:30:07;;;;;;;0.77;0.70;;;;;;;2.75;79.19;100076.28;5052298;28;20481;-80
2024/02/22 02:32:34;;;;;;;0.83;0.77;;;;;;;2.76;79.10;100080.59;5052573;28;20442;-80
2024/02/22 02:35:01;;;;;;;0.73;0.73;;;;;;;2.77;79.14;100084.88;5052351;28;20444;-80
2024/02/22 02:37:27;;;;;;;0.90;0.90;;;;;;;2.76;79.27;100080.59;5052412;28;20437;-81
2024/02/22 02:39:54;;;;;;;1.50;0.80;;;;;;;2.73;78.69;100072.84;5052444;28;20444;-73
2024/02/22 02:42:23;;;;;;;1.10;1.00;;;;;;;2.76;79.24;100077.16;5055653;28;20435;-73
2024/02/22 02:44:49;;;;;;;0.90;0.80;;;;;;;2.74;79.17;100074.56;5055962;28;20433;-73
2024/02/22 02:47:16;;;;;;;1.10;0.97;;;;;;;2.73;79.24;100083.19;5055691;28;20547;-73
2024/02/22 02:49:43;;;;;;;1.10;1.00;;;;;;;2.73;79.36;100074.53;5055369;28;20523;-73
2024/02/22 02:52:10;;;;;;;1.20;1.10;;;;;;;2.66;79.23;100055.63;5055414;28;20447;-73
2024/02/22 02:54:37;;;;;;;1.20;1.10;;;;;;;2.71;79.26;100059.06;5055645;28;20468;-74
2024/02/22 02:57:04;;;;;;;1.40;1.30;;;;;;;2.71;79.29;100061.66;5055487;28;20436;-73
2024/02/22 02:59:33;;;;;;;1.53;1.43;;;;;;;2.72;79.32;100059.94;5055649;28;20442;-73
2024/02/22 03:02:00;;;;;;;1.37;1.27;;;;;;;2.70;79.48;100059.94;5055191;28;20440;-73
2024/02/22 03:04:27;;;;;;;1.00;1.00;;;;;;;2.70;79.25;100054.78;5055364;28;20455;-73
2024/02/22 03:06:53;;;;;;;1.00;1.00;;;;;;;2.68;79.28;100056.50;5055073;28;20922;-74
2024/02/22 03:09:20;;;;;;;1.20;0.97;;;;;;;2.69;79.24;100063.38;5055195;28;20849;-73
2024/02/22 03:11:47;;;;;;;1.43;1.00;;;;;;;2.68;79.37;100053.91;5055351;28;20463;-73
2024/02/22 03:14:15;;;;;;;1.10;1.00;;;;;;;2.68;79.29;100053.91;5055095;28;20802;-73
2024/02/22 03:16:43;;;;;;;0.80;0.80;;;;;;;2.66;79.58;100050.47;5055039;28;21003;-73
2024/02/22 03:19:10;;;;;;;1.67;1.00;;;;;;;2.67;79.30;100049.63;5054961;28;20436;-73
2024/02/22 03:21:38;;;;;;;0.80;0.80;;;;;;;2.68;79.32;100043.59;5055143;28;20846;-73
2024/02/22 03:24:07;;;;;;;0.70;0.70;;;;;;;2.67;79.22;100047.03;5055074;28;20437;-73
2024/02/22 03:26:34;;;;;;;0.87;0.87;;;;;;;2.67;79.32;100043.56;5054900;28;20811;-73
2024/02/22 03:29:01;;;;;;;0.93;0.77;;;;;;;2.65;79.36;100047.91;5054790;28;20440;-73
2024/02/22 03:31:28;;;;;;;1.10;1.00;;;;;;;2.64;79.10;100047.00;5054644;28;20490;-73
2024/02/22 03:33:56;;;;;;;0.70;0.70;;;;;;;2.63;79.18;100047.88;5054753;28;21001;-73
2024/02/22 03:36:23;;;;;;;0.90;0.90;;;;;;;2.62;79.19;100046.19;5054740;28;20444;-73
2024/02/22 03:38:53;;;;;;;0.83;0.77;;;;;;;2.60;79.11;100035.84;5054744;28;20447;-73
2024/02/22 03:41:24;;;;;;;0.63;0.63;;;;;;;2.60;79.11;100030.66;5054492;28;20452;-73
2024/02/22 03:43:51;;;;;;;1.20;1.10;;;;;;;2.61;79.19;100031.53;5054459;28;20904;-73
2024/02/22 03:46:18;;;;;;;1.33;0.63;;;;;;;2.60;79.14;100024.66;5054523;28;20450;-73
2024/02/22 03:48:45;;;;;;;0.90;0.90;;;;;;;2.60;79.10;100025.50;5054220;28;20449;-73
2024/02/22 03:51:13;;;;;;;1.00;0.90;;;;;;;2.60;79.06;100019.50;5054572;28;20510;-73
2024/02/22 03:53:40;;;;;;;1.03;1.00;;;;;;;2.60;79.14;100019.50;5053421;28;20443;-73
2024/02/22 03:56:07;;;;;;;1.17;0.93;;;;;;;2.58;79.14;100016.03;5054417;28;20469;-73
2024/02/22 03:58:34;;;;;;;1.10;1.00;;;;;;;2.61;79.14;100021.19;5054212;28;20448;-73
2024/02/22 04:01:01;;;;;;;1.30;1.20;;;;;;;2.62;79.11;100019.50;5054253;28;20506;-72
2024/02/22 04:03:28;;;;;;;1.20;1.10;;;;;;;2.62;79.11;100027.25;5054183;28;20524;-73
2024/02/22 04:05:55;;;;;;;1.20;1.07;;;;;;;2.62;79.09;100017.78;5054118;28;20556;-73
2024/02/22 04:08:24;;;;;;;1.13;1.03;;;;;;;2.62;79.22;100019.50;5054502;28;20442;-73
2024/02/22 04:10:51;;;;;;;1.43;1.27;;;;;;;2.61;79.39;100021.19;5054027;28;20483;-73
2024/02/22 04:13:18;;;;;;;1.20;1.10;;;;;;;2.62;79.12;100016.91;5054006;28;20446;-73
2024/02/22 04:15:45;;;;;;;1.20;1.10;;;;;;;2.61;79.20;100013.44;5053870;28;20964;-72
2024/02/22 04:18:12;;;;;;;1.50;1.37;;;;;;;2.62;78.99;100022.09;5054177;28;20464;-73
2024/02/22 04:20:39;;;;;;;1.40;1.27;;;;;;;2.60;79.08;100001.41;5054018;28;20445;-73
2024/02/22 04:23:06;;;;;;;1.07;1.07;;;;;;;2.61;79.13;100005.69;5053670;28;20447;-73
2024/02/22 04:25:34;;;;;;;1.33;1.23;;;;;;;2.61;79.08;100005.69;5054092;28;20437;-73
2024/02/22 04:28:03;;;;;;;1.33;1.23;;;;;;;2.61;79.29;100000.53;5053804;28;20827;-73
2024/02/22 04:30:30;;;;;;;1.30;1.20;;;;;;;2.61;79.14;99997.97;5053632;28;20856;-76
2024/02/22 04:32:57;;;;;;;1.40;1.30;;;;;;;2.61;78.96;99995.38;5053948;28;20890;-76
2024/02/22 04:35:24;;;;;;;1.27;1.17;;;;;;;2.62;78.93;99991.09;5053611;28;20440;-76
2024/02/22 04:37:51;;;;;;;1.40;1.30;;;;;;;2.61;79.08;99987.63;5053709;28;20545;-75
2024/02/22 04:40:18;;;;;;;1.83;1.27;;;;;;;2.60;79.04;99998.84;5053758;28;20449;-76
2024/02/22 04:42:46;;;;;;;1.50;1.37;;;;;;;2.62;79.15;99991.09;5053611;28;20851;-76
2024/02/22 04:45:13;;;;;;;1.30;1.10;;;;;;;2.62;79.16;99986.78;5053404;28;20475;-76
2024/02/22 04:47:40;;;;;;;1.20;1.10;;;;;;;2.61;78.77;99985.03;5053276;28;20807;-76
2024/02/22 04:50:08;;;;;;;1.30;1.20;;;;;;;2.61;79.05;99985.03;5053283;28;20571;-76
2024/02/22 04:52:35;;;;;;;1.10;1.10;;;;;;;2.61;78.89;99974.72;5053064;28;20448;-76
2024/02/22 04:55:03;;;;;;;1.20;1.07;;;;;;;2.61;78.99;99972.13;5053331;28;20468;-76
2024/02/22 04:57:30;;;;;;;1.00;0.90;;;;;;;2.60;79.24;99978.16;5053204;28;20918;-76
2024/02/22 04:59:58;;;;;;;1.00;0.90;;;;;;;2.60;78.67;99975.59;5053401;28;20471;-73
2024/02/22 05:02:25;;;;;;;1.07;1.00;;;;;;;2.59;78.75;99968.72;5052983;28;20448;-72
2024/02/22 05:04:52;;;;;;;1.57;0.90;;;;;;;2.58;78.88;99966.97;5052822;28;20452;-73
2024/02/22 05:07:19;;;;;;;0.90;0.90;;;;;;;2.59;79.05;99971.31;5052981;28;20454;-73
2024/02/22 05:09:46;;;;;;;1.53;1.20;;;;;;;2.57;78.93;99968.72;5053063;28;20439;-73
2024/02/22 05:12:12;;;;;;;1.30;1.20;;;;;;;2.59;78.88;99963.56;5053214;28;20429;-73
2024/02/22 05:14:39;;;;;;;0.90;0.90;;;;;;;2.57;78.87;99958.38;5043926;28;20453;-73
2024/02/22 05:17:08;;;;;;;2.00;1.10;;;;;;;2.57;78.84;99967.84;5033078;28;20438;-73
2024/02/22 05:19:35;;;;;;;1.63;1.13;;;;;;;2.55;78.85;99962.69;5033030;28;20880;-73
2024/02/22 05:22:02;;;;;;;1.53;1.23;;;;;;;2.54;78.83;99960.13;5032859;28;20448;-73
2024/02/22 05:24:30;;;;;;;1.37;0.80;;;;;;;2.53;78.56;99963.53;5032739;28;20445;-72
2024/02/22 05:26:57;;;;;;;0.70;0.70;;;;;;;2.52;78.82;99964.41;5032824;28;20441;-73
2024/02/22 05:29:24;;;;;;;1.83;1.00;;;;;;;2.51;78.84;99966.16;5032797;28;20441;-73
2024/02/22 05:31:51;;;;;;;1.07;0.97;;;;;;;2.43;78.63;99954.97;5032889;28;20485;-73
2024/02/22 05:34:20;;;;;;;0.80;0.80;;;;;;;2.50;78.78;99967.03;5032765;28;20438;-73
2024/02/22 05:36:47;;;;;;;1.13;1.03;;;;;;;2.51;78.92;99971.31;5032809;28;20451;-73
2024/02/22 05:39:14;;;;;;;1.00;0.93;;;;;;;2.51;78.84;99962.72;5032913;28;20434;-81
2024/02/22 05:41:41;;;;;;;0.83;0.83;;;;;;;2.47;78.75;99961.88;5033040;28;20460;-80
2024/02/22 05:44:08;;;;;;;1.20;1.10;;;;;;;2.50;78.53;99960.97;5033248;28;20433;-80
2024/02/22 05:46:35;;;;;;;1.30;0.90;;;;;;;2.48;78.79;99950.66;5032971;28;20442;-80
2024/02/22 05:49:01;;;;;;;0.90;0.90;;;;;;;2.47;78.63;99959.28;5049664;28;20438;-80
2024/02/22 05:51:30;;;;;;;0.73;0.73;;;;;;;2.46;78.56;99949.78;5052824;28;20980;-80
2024/02/22 05:53:57;;;;;;;1.40;0.73;;;;;;;2.46;78.59;99943.78;5052734;28;20450;-81
2024/02/22 05:56:23;;;;;;;0.70;0.70;;;;;;;2.46;78.53;99943.78;5052764;28;20479;-81
2024/02/22 05:58:50;;;;;;;0.90;0.90;;;;;;;2.42;78.70;99937.78;5053176;28;20434;-81
2024/02/22 06:01:17;;;;;;;1.00;0.90;;;;;;;2.41;78.57;99930.88;5052844;28;20447;-81
2024/02/22 06:03:45;;;;;;;0.70;0.70;;;;;;;2.43;78.80;99939.47;5052988;28;20441;-81
2024/02/22 06:06:12;;;;;;;0.87;0.80;;;;;;;2.42;78.78;99927.44;5052781;28;20447;-81
2024/02/22 06:08:42;;;;;;;0.90;0.90;;;;;;;2.42;78.75;99924.00;5052816;28;20946;-74
2024/02/22 06:11:09;;;;;;;1.20;0.80;;;;;;;2.40;78.70;99936.06;5052365;28;20495;-75
2024/02/22 06:13:36;;;;;;;1.03;0.90;;;;;;;2.38;78.49;99926.56;5052738;28;20858;-75
2024/02/22 06:16:04;;;;;;;0.80;0.80;;;;;;;2.34;78.61;99914.56;5053965;28;20535;-75
2024/02/22 06:18:31;;;;;;;0.60;0.60;;;;;;;2.34;78.78;99914.56;5056332;28;20926;-75
2024/02/22 06:20:57;;;;;;;0.70;0.70;;;;;;;2.33;78.65;99911.97;5056195;28;20449;-75
2024/02/22 06:23:24;;;;;;;0.70;0.70;;;;;;;2.32;78.73;99903.38;5056291;28;20440;-74
2024/02/22 06:25:54;;;;;;;1.83;0.87;;;;;;;2.32;78.83;99911.13;5056209;28;20462;-75
2024/02/22 06:28:20;;;;;;;1.43;0.70;;;;;;;2.31;78.88;99912.00;5055896;28;20451;-74
2024/02/22 06:30:47;;;;;;;0.97;0.60;;;;;;;2.32;78.56;99907.69;5056216;28;20476;-74
2024/02/22 06:33:14;;;;;;;2.10;0.60;;;;;;;2.32;78.77;99915.41;5055840;28;20202;-74
2024/02/22 06:35:41;;;;;;;0.77;0.77;;;;;;;2.32;78.87;99912.84;5055873;28;20439;-74
2024/02/22 06:38:08;;;;;;;0.70;0.70;;;;;;;2.32;78.89;99916.28;5055997;28;20448;-73
2024/02/22 06:40:35;;;;;;;1.67;0.80;;;;;;;2.25;78.97;99903.41;5055746;28;20451;-74
2024/02/22 06:43:05;;;;;;;0.93;0.93;;;;;;;2.31;78.91;99922.31;5055739;28;20446;-74
2024/02/22 06:45:32;;;;;;;1.23;0.90;;;;;;;2.32;78.99;99918.84;5055734;28;20439;-74
2024/02/22 06:47:59;;;;;;;0.80;0.80;;;;;;;2.31;79.29;99922.31;5055858;28;20446;-75
2024/02/22 06:50:25;;;;;;;1.17;1.00;;;;;;;2.33;78.91;99920.59;5055583;28;21003;-76
2024/02/22 06:52:52;;;;;;;0.87;0.87;;;;;;;2.34;79.10;99917.13;5055483;28;20443;-75
2024/02/22 06:55:19;;;;;;;1.00;0.90;;;;;;;2.35;79.14;99913.69;5055430;28;20461;-74
2024/02/22 06:57:46;;;;;;;1.07;0.97;;;;;;;2.28;79.15;99903.41;5055453;28;20453;-75
2024/02/22 07:00:16;;;;;;;1.10;1.00;;;;;;;2.34;79.30;99913.69;5055507;28;20437;-74
2024/02/22 07:02:43;;;;;;;1.10;1.00;;;;;;;2.35;79.85;99916.25;5055373;28;20467;-74
2024/02/22 07:05:12;;;;;;;0.90;0.80;;;;;;;2.36;79.49;99907.69;5055457;28;20460;-74
2024/02/22 07:07:39;;;;;;;1.10;1.00;;;;;;;2.34;79.35;99911.97;5055369;28;20448;-74
2024/02/22 07:10:07;;;;;;;1.00;0.90;;;;;;;2.35;79.29;99913.69;5055221;28;20517;-74
2024/02/22 07:12:34;;;;;;;1.33;0.80;;;;;;;2.35;79.58;99921.44;5055076;28;20467;-75
2024/02/22 07:15:01;;;;;;;1.37;1.13;;;;;;;2.38;79.53;99925.72;5055140;28;20444;-74
2024/02/22 07:17:29;;;;;;;1.27;0.70;;;;;;;2.36;79.53;99917.16;5055331;28;20440;-74
2024/02/22 07:19:56;;;;;;;0.80;0.80;;;;;;;2.38;79.40;99924.00;5055128;28;20438;-71
2024/02/22 07:22:23;;;;;;;1.23;0.97;;;;;;;2.40;79.48;99928.31;5055012;28;20458;-71
2024/02/22 07:24:50;;;;;;;0.90;0.90;;;;;;;2.37;79.50;99914.53;5054941;28;20440;-71
2024/02/22 07:27:17;;;;;;;1.17;0.80;;;;;;;2.43;79.43;99923.13;5054894;28;20450;-71
2024/02/22 07:29:44;;;;;;;1.20;1.00;;;;;;;2.43;79.60;99924.00;5054839;28;20445;-71
2024/02/22 07:32:12;;;;;;;1.00;0.90;;;;;;;2.44;79.60;99914.53;5054922;28;20474;-71
2024/02/22 07:34:40;;;;;;;3.23;1.30;;;;;;;2.46;79.91;99923.13;5054699;28;20498;-71
2024/02/22 07:37:07;;;;;;;1.47;1.00;;;;;;;2.44;80.11;99919.69;5054788;28;20434;-71
2024/02/22 07:39:34;;;;;;;1.37;0.87;;;;;;;2.47;79.91;99927.41;5054906;28;20451;-71
2024/02/22 07:42:01;;;;;;;1.23;0.93;;;;;;;2.49;79.88;99925.69;5054628;28;20774;-71
2024/02/22 07:44:28;;;;;;;1.10;0.80;;;;;;;2.49;79.88;99934.28;5054536;28;20940;-71
2024/02/22 07:46:55;;;;;;;1.30;0.80;;;;;;;2.51;79.94;99926.56;5051197;28;20503;-71
2024/02/22 07:49:22;;;;;;;1.20;0.83;;;;;;;2.52;79.94;99925.69;5034626;28;20461;-71
2024/02/22 07:51:50;;;;;;;0.87;0.57;;;;;;;2.53;79.80;99914.47;5034528;28;20482;-71
2024/02/22 07:54:17;;;;;;;0.80;0.50;;;;;;;2.55;79.77;99918.78;5034480;28;20440;-71
2024/02/22 07:56:44;;;;;;;1.40;0.70;;;;;;;2.54;79.81;99911.06;5034610;28;20438;-71
2024/02/22 07:59:11;;;;;;;0.73;0.73;;;;;;;2.55;79.91;99918.78;5034482;28;20438;-70
2024/02/22 08:01:40;;;;;;;0.70;0.60;;;;;;;2.57;79.89;99908.47;5034190;28;20451;-70
2024/02/22 08:04:07;;;;;;;0.53;0.50;;;;;;;2.57;79.83;99917.06;5034197;28;20470;-70
2024/02/22 08:06:34;;;;;;;0.77;0.70;;;;;;;2.59;79.84;99917.06;5034157;28;20448;-70
2024/02/22 08:09:03;;;;;;;1.13;0.90;;;;;;;2.60;80.01;99908.44;5034209;28;20445;-80
2024/02/22 08:11:30;;;;;;;0.57;0.57;;;;;;;2.62;79.70;99908.44;5034318;28;20500;-80
2024/02/22 08:13:58;;;;;;;0.57;0.50;;;;;;;2.62;79.85;99906.72;5034264;28;20446;-80
2024/02/22 08:16:25;;;;;;;0.50;0.50;;;;;;;2.63;79.88;99911.00;5034214;28;20978;-80
2024/02/22 08:18:52;;;;;;;0.80;0.70;;;;;;;2.64;80.13;99897.22;5034116;28;20444;-80
2024/02/22 08:21:20;;;;;;;0.60;0.60;;;;;;;2.65;80.10;99893.78;5034458;28;20450;-80
2024/02/22 08:23:51;;;;;;;0.83;0.83;;;;;;;2.65;79.83;99898.97;5034247;28;20440;-80
2024/02/22 08:26:19;;;;;;;1.07;0.80;;;;;;;2.67;80.03;99897.25;5034021;28;20447;-80
2024/02/22 08:28:46;;;;;;;0.50;0.50;;;;;;;2.68;80.03;99901.53;5034034;28;20521;-80
2024/02/22 08:31:13;;;;;;;0.93;0.83;;;;;;;2.67;80.12;99892.06;5033798;28;20482;-80
2024/02/22 08:33:41;;;;;;;0.70;0.70;;;;;;;2.70;80.03;99896.34;5033710;28;20433;-79
2024/02/22 08:36:08;;;;;;;1.33;0.70;;;;;;;2.69;80.06;99892.91;5034045;28;20438;-80
2024/02/22 08:38:38;;;;;;;0.67;0.67;;;;;;;2.73;80.25;99894.63;5033545;28;20436;-79
2024/02/22 08:41:05;;;;;;;0.87;0.80;;;;;;;2.75;80.06;99889.44;5033595;28;20846;-70
2024/02/22 08:43:34;;;;;;;1.10;0.80;;;;;;;2.76;80.04;99886.84;5033472;28;20454;-70
2024/02/22 08:46:01;;;;;;;2.70;1.00;;;;;;;2.77;80.22;99885.97;5033341;28;20457;-71
2024/02/22 08:48:28;;;;;;;1.63;0.73;;;;;;;2.80;80.18;99882.53;5033500;28;20435;-70
2024/02/22 08:50:57;;;;;;;0.53;0.53;;;;;;;2.81;80.05;99890.28;5033665;28;20453;-70
2024/02/22 08:53:24;;;;;;;1.47;0.83;;;;;;;2.83;79.95;99879.91;5033328;28;20436;-70
2024/02/22 08:55:51;;;;;;;1.27;0.80;;;;;;;2.85;80.07;99879.94;5033411;28;21020;-70
2024/02/22 08:58:18;;;;;;;2.30;1.03;;;;;;;2.86;80.17;99881.63;5033216;28;20958;-70
2024/02/22 09:00:47;;;;;;;1.27;0.87;;;;;;;2.87;79.92;99873.00;5033340;28;20985;-70
2024/02/22 09:03:14;;;;;;;1.50;0.90;;;;;;;2.88;80.18;99869.56;5033173;28;20529;-70
2024/02/22 09:05:43;;;;;;;2.80;0.97;;;;;;;2.89;80.09;99859.22;5033084;28;20937;-70
2024/02/22 09:08:10;;;;;;;2.93;1.10;;;;;;;2.91;80.01;99860.06;5033128;28;20456;-70
2024/02/22 09:10:37;;;;;;;1.47;1.10;;;;;;;2.93;79.79;99857.50;5033097;28;20438;-70
2024/02/22 09:13:04;;;;;;;4.10;1.53;;;;;;;2.96;80.00;99857.47;5033027;28;20508;-70
2024/02/22 09:15:31;;;;;;;1.30;1.00;;;;;;;2.98;80.08;99850.53;5032944;28;20445;-70
2024/02/22 09:17:59;;;;;;;1.00;0.80;;;;;;;3.00;80.14;99854.84;5032896;28;20473;-70
2024/02/22 09:20:27;;;;;;;2.70;1.40;;;;;;;3.02;80.10;99854.84;5033570;28;20445;-81
2024/02/22 09:22:54;;;;;;;1.20;0.90;;;;;;;3.04;80.01;99853.09;5033401;28;20874;-81
2024/02/22 09:25:21;;;;;;;2.33;1.77;;;;;;;3.05;79.96;99853.09;5033604;28;20946;-81
2024/02/22 09:27:48;;;;;;;2.17;1.20;;;;;;;3.07;79.80;99850.50;5033453;28;20945;-81
2024/02/22 09:30:15;;;;;;;3.70;1.30;;;;;;;3.06;79.94;99847.03;5033290;28;20432;-81
2024/02/22 09:32:42;;;;;;;0.70;0.70;;;;;;;3.10;79.71;99853.06;5033346;28;20995;-82
2024/02/22 09:35:10;;;;;;;2.80;0.93;;;;;;;3.11;79.67;99857.34;5033293;28;20445;-81
2024/02/22 09:37:37;;;;;;;1.70;1.00;;;;;;;3.13;79.68;99857.38;5033259;28;20451;-81
2024/02/22 09:40:05;;;;;;;2.77;1.30;;;;;;;3.14;79.63;99849.59;5033371;28;20454;-81
2024/02/22 09:42:32;;;;;;;2.60;1.30;;;;;;;3.16;79.56;99850.44;5033646;28;20430;-80
2024/02/22 09:44:59;;;;;;;4.13;1.20;;;;;;;3.18;80.03;99851.25;5033087;28;20931;-81
2024/02/22 09:47:26;;;;;;;3.83;1.43;;;;;;;3.19;79.71;99853.00;5043544;28;20433;-81
2024/02/22 09:49:53;;;;;;;1.60;1.20;;;;;;;3.21;79.58;99838.34;5052756;28;20453;-73
2024/02/22 09:52:21;;;;;;;2.33;1.20;;;;;;;3.22;79.50;99844.38;5056470;28;20848;-73
2024/02/22 09:54:49;;;;;;;1.20;1.10;;;;;;;3.24;79.46;99840.91;5056585;28;20468;-73
2024/02/22 09:57:16;;;;;;;2.63;1.30;;;;;;;3.24;79.43;99833.16;5056596;28;21003;-73
2024/02/22 09:59:49;;;;;;;3.97;1.10;;;;;;;3.28;79.34;99839.13;5056632;28;20441;-73
2024/02/22 10:02:16;;;;;;;5.07;1.40;;;;;;;3.22;79.38;99828.84;5056441;28;20502;-73
2024/02/22 10:04:52;;;;;;;2.40;1.17;;;;;;;3.30;79.37;99827.06;5056724;28;20440;-73
2024/02/22 10:07:24;;;;;;;1.87;1.10;;;;;;;3.29;79.16;99825.34;5056647;28;20448;-73
2024/02/22 10:09:52;;;;;;;1.37;1.20;;;;;;;3.29;79.00;99825.34;5056610;28;20469;-73
2024/02/22 10:12:25;;;;;;;1.97;1.10;;;;;;;3.28;78.95;99819.31;5056138;28;21009;-74
2024/02/22 10:14:52;;;;;;;2.73;1.30;;;;;;;3.27;79.02;99806.41;5056258;28;20934;-73
2024/02/22 10:17:24;;;;;;;3.90;1.17;;;;;;;3.27;79.16;99811.59;5056387;28;20803;-73
2024/02/22 10:19:58;;;;;;;2.33;1.10;;;;;;;3.26;78.82;99802.09;5056235;28;20448;-73
2024/02/22 10:22:29;;;;;;;3.13;1.30;;;;;;;3.25;78.97;99800.41;5056569;28;20465;-73
2024/02/22 10:25:07;;;;;;;4.20;1.60;;;;;;;3.26;78.94;99796.94;5056302;28;20440;-73
2024/02/22 10:27:34;;;;;;;2.40;1.17;;;;;;;3.25;78.91;99798.66;5056284;28;20442;-73
2024/02/22 10:30:01;;;;;;;2.80;1.30;;;;;;;3.25;78.82;99800.41;5056167;28;20796;-74
2024/02/22 10:32:28;;;;;;;2.47;1.17;;;;;;;3.23;79.03;99791.78;5055786;28;20484;-74
2024/02/22 10:34:56;;;;;;;3.63;1.30;;;;;;;3.26;79.00;99789.16;5055842;28;20437;-74
2024/02/22 10:37:23;;;;;;;1.53;1.20;;;;;;;3.26;78.93;99790.03;5055948;28;20441;-74
2024/02/22 10:39:52;;;;;;;2.23;1.13;;;;;;;3.26;78.90;99784.84;5055883;28;20934;-74
2024/02/22 10:42:19;;;;;;;2.97;1.50;;;;;;;3.27;78.90;99775.41;5055811;28;20448;-74
2024/02/22 10:44:46;;;;;;;2.07;1.10;;;;;;;3.27;78.81;99778.84;5055694;28;20445;-74
2024/02/22 10:47:13;;;;;;;2.07;1.07;;;;;;;3.26;79.00;99769.34;5055865;28;20806;-74
2024/02/22 10:49:40;;;;;;;3.23;1.27;;;;;;;3.26;78.84;99766.75;5055703;28;20809;-74
2024/02/22 10:52:08;;;;;;;4.83;1.70;;;;;;;3.26;78.65;99764.16;5055438;28;20490;-75
2024/02/22 10:54:36;;;;;;;0.93;0.90;;;;;;;3.27;78.83;99767.63;5055608;28;20466;-74
2024/02/22 10:57:07;;;;;;;2.70;1.80;;;;;;;3.26;78.74;99753.84;5055380;28;20436;-73
2024/02/22 10:59:35;;;;;;;1.73;1.30;;;;;;;3.25;78.84;99746.97;5055861;28;20437;-81
2024/02/22 11:02:03;;;;;;;4.07;1.50;;;;;;;3.25;78.81;99748.69;5055612;28;20453;-81
2024/02/22 11:04:32;;;;;;;3.87;1.37;;;;;;;3.26;78.79;99747.81;5056247;28;20487;-82
2024/02/22 11:07:05;;;;;;;3.43;1.47;;;;;;;3.25;78.84;99736.63;5056135;28;20487;-80
2024/02/22 11:09:40;;;;;;;3.87;1.50;;;;;;;3.25;78.71;99734.03;5056193;28;20501;-82
2024/02/22 11:12:09;;;;;;;2.63;1.30;;;;;;;3.27;78.71;99729.72;5056015;28;20550;-81
2024/02/22 11:14:37;;;;;;;3.13;1.70;;;;;;;3.27;78.68;99731.44;5056254;28;20572;-81
2024/02/22 11:17:15;;;;;;;4.07;1.60;;;;;;;3.27;78.71;99724.53;5055610;28;20801;-81
2024/02/22 11:19:44;;;;;;;3.70;1.80;;;;;;;3.27;79.00;99719.38;5055794;28;20441;-82
2024/02/22 11:22:15;;;;;;;5.70;1.53;;;;;;;3.27;78.75;99716.78;5055672;28;20441;-81
2024/02/22 11:24:42;;;;;;;4.80;1.67;;;;;;;3.29;78.84;99724.50;5055689;28;20940;-82
2024/02/22 11:27:16;;;;;;;2.37;1.43;;;;;;;3.30;78.97;99726.25;5055780;28;20927;-82
2024/02/22 11:29:43;;;;;;;5.17;1.40;;;;;;;3.32;78.99;99734.81;5055869;28;20442;-82
2024/02/22 11:32:13;;;;;;;3.70;1.77;;;;;;;3.32;78.84;99733.97;5055620;28;20478;-81
2024/02/22 11:34:40;;;;;;;3.90;1.97;;;;;;;3.34;78.98;99730.50;5055577;28;20436;-82
2024/02/22 11:37:14;;;;;;;4.00;1.70;;;;;;;3.33;78.90;99733.13;5055500;28;20498;-82
2024/02/22 11:39:41;;;;;;;4.93;1.90;;;;;;;3.35;79.06;99742.53;5055345;28;20430;-76
2024/02/22 11:42:15;;;;;;;3.20;1.77;;;;;;;3.36;78.96;99733.09;5054919;28;20447;-76